Time;durP1;ratioP1;P1;durP2;ratioP2;P2;SDS_P1;SDS_P2;PMS_P1;PMS_P2;Temp;Humidity;BMP_temperature;BMP_pressure;BME280_temperature;BME280_humidity;BME280_pressure;Samples;Min_cycle;Max_cycle;Signal;HPM_P1;HPM_P2
2022/10/08 00:00:45;;;;;;;;;;;20.10;85.50;;;;;;5111578;28;19924;-62
2022/10/08 00:03:13;;;;;;;;;;;20.10;85.50;;;;;;5111288;28;19924;-62
2022/10/08 00:05:39;;;;;;;;;;;20.50;85.70;;;;;;5109887;28;19928;-68
2022/10/08 00:08:04;;;;;;;;;;;20.20;85.60;;;;;;5112558;28;20012;-61
2022/10/08 00:10:31;;;;;;;;;;;20.30;85.60;;;;;;5111314;28;20014;-62
2022/10/08 00:13:00;;;;;;;;;;;20.30;85.60;;;;;;5109645;28;19924;-62
2022/10/08 00:15:26;;;;;;;;;;;20.40;85.70;;;;;;5099300;28;19959;-61
2022/10/08 00:17:51;;;;;;;;;;;20.00;85.50;;;;;;5107343;28;20024;-61
2022/10/08 00:20:17;;;;;;;;;;;20.20;85.70;;;;;;5110845;28;20023;-61
2022/10/08 00:22:43;;;;;;;;;;;20.30;85.70;;;;;;5111759;28;19931;-62
2022/10/08 00:25:09;;;;;;;;;;;20.30;86.10;;;;;;5094642;28;19931;-61
2022/10/08 00:27:35;;;;;;;;;;;20.20;86.00;;;;;;5093437;28;19927;-62
2022/10/08 00:30:01;;;;;;;;;;;20.50;86.00;;;;;;5108434;28;19923;-61
2022/10/08 00:32:26;;;;;;;;;;;20.30;86.30;;;;;;5113417;28;19924;-68
2022/10/08 00:34:52;;;;;;;;;;;20.30;85.80;;;;;;5112900;28;19930;-68
2022/10/08 00:37:17;;;;;;;;;;;19.50;85.50;;;;;;5114609;28;19928;-68
2022/10/08 00:39:43;;;;;;;;;;;20.20;85.90;;;;;;5116194;28;20330;-62
2022/10/08 00:42:10;;;;;;;;;;;20.20;86.10;;;;;;5117022;28;20396;-61
2022/10/08 00:44:54;;;;;;;;;;;20.30;86.00;;;;;;5114767;28;20289;-62
2022/10/08 00:47:32;;;;;;;;;;;20.30;85.10;;;;;;5098072;27;20417;-61
2022/10/08 00:50:05;;;;;;;;;;;20.30;86.00;;;;;;5114553;28;20365;-62
2022/10/08 00:52:34;;;;;;;;;;;20.20;86.00;;;;;;5115753;28;19953;-62
2022/10/08 00:55:03;;;;;;;;;;;20.10;86.00;;;;;;5098718;28;19920;-62
2022/10/08 00:57:29;;;;;;;;;;;20.30;86.00;;;;;;5115234;28;19924;-69
2022/10/08 00:59:55;;;;;;;;;;;20.20;86.00;;;;;;5112709;27;19977;-69
2022/10/08 01:02:21;;;;;;;;;;;20.10;86.10;;;;;;5096787;28;20393;-68
2022/10/08 01:04:47;;;;;;;;;;;;;;;;;;5116184;28;19924;-67
2022/10/08 01:07:17;;;;;;;;;;;20.30;86.20;;;;;;5115936;28;20010;-69
2022/10/08 01:09:55;;;;;;;;;;;20.30;86.20;;;;;;5112215;28;19924;-69
2022/10/08 01:12:27;;;;;;;;;;;20.10;86.10;;;;;;5107439;28;19935;-69
2022/10/08 01:14:56;;;;;;;;;;;20.20;86.20;;;;;;5096540;28;19924;-68
2022/10/08 01:17:40;;;;;;;;;;;20.40;86.30;;;;;;5098470;28;19924;-69
2022/10/08 01:20:25;;;;;;;;;;;20.20;86.20;;;;;;5103616;28;19923;-61
2022/10/08 01:23:09;;;;;;;;;;;20.30;86.30;;;;;;5113500;28;20019;-62
2022/10/08 01:25:36;;;;;;;;;;;20.30;85.40;;;;;;5097850;28;20014;-62
2022/10/08 01:28:12;;;;;;;;;;;20.10;86.20;;;;;;5087350;28;19930;-62
2022/10/08 01:30:39;;;;;;;;;;;20.20;86.40;;;;;;5094013;28;20317;-61
2022/10/08 01:33:11;;;;;;;;;;;20.30;86.40;;;;;;5097314;28;19931;-61
2022/10/08 01:35:37;;;;;;;;;;;20.10;86.90;;;;;;5116033;28;19919;-62
2022/10/08 01:38:04;;;;;;;;;;;20.20;86.40;;;;;;5096300;28;19932;-62
2022/10/08 01:40:34;;;;;;;;;;;20.20;86.50;;;;;;5090255;28;19924;-61
2022/10/08 01:42:59;;;;;;;;;;;20.00;86.40;;;;;;5094991;28;19971;-62
2022/10/08 01:45:26;;;;;;;;;;;20.10;86.40;;;;;;5096059;28;19981;-61
2022/10/08 01:47:52;;;;;;;;;;;20.40;86.60;;;;;;5096902;28;20390;-62
2022/10/08 01:50:27;;;;;;;;;;;20.30;86.60;;;;;;5092855;28;19979;-61
2022/10/08 01:52:57;;;;;;;;;;;20.00;86.50;;;;;;5078918;28;20019;-63
2022/10/08 01:55:27;;;;;;;;;;;20.30;86.70;;;;;;5097638;28;19924;-62
2022/10/08 01:57:56;;;;;;;;;;;20.30;87.20;;;;;;5098021;28;19924;-62
2022/10/08 02:00:22;;;;;;;;;;;20.30;86.70;;;;;;5087913;28;19924;-61
2022/10/08 02:02:48;;;;;;;;;;;20.20;86.70;;;;;;5109649;28;20007;-62
2022/10/08 02:05:13;;;;;;;;;;;20.10;86.60;;;;;;5113492;28;19930;-62
2022/10/08 02:07:41;;;;;;;;;;;20.30;86.70;;;;;;5114105;28;19923;-62
2022/10/08 02:10:06;;;;;;;;;;;20.00;86.60;;;;;;5099802;28;19927;-62
2022/10/08 02:12:35;;;;;;;;;;;20.10;86.90;;;;;;5107501;28;19975;-61
2022/10/08 02:15:01;;;;;;;;;;;20.30;86.80;;;;;;5112475;28;19931;-62
2022/10/08 02:17:45;;;;;;;;;;;20.20;86.90;;;;;;5116137;28;19923;-62
2022/10/08 02:20:21;;;;;;;;;;;20.10;86.70;;;;;;5111167;28;19924;-62
2022/10/08 02:23:16;;;;;;;;;;;20.10;86.70;;;;;;5078902;28;19924;-61
2022/10/08 02:25:45;;;;;;;;;;;20.10;86.80;;;;;;5086228;28;20011;-65
2022/10/08 02:28:16;;;;;;;;;;;20.10;85.50;;;;;;5110937;28;20289;-62
2022/10/08 02:30:48;;;;;;;;;;;20.10;86.80;;;;;;5109884;28;20425;-62
2022/10/08 02:33:14;;;;;;;;;;;20.20;86.80;;;;;;5113729;28;19931;-62
2022/10/08 02:35:45;;;;;;;;;;;20.20;86.80;;;;;;5095607;28;19935;-61
2022/10/08 02:38:12;;;;;;;;;;;20.40;87.00;;;;;;5113097;28;19924;-62
2022/10/08 02:40:39;;;;;;;;;;;19.90;86.70;;;;;;5096598;28;20307;-62
2022/10/08 02:43:06;;;;;;;;;;;20.30;86.90;;;;;;5093919;28;19928;-61
2022/10/08 02:45:34;;;;;;;;;;;20.30;87.00;;;;;;5088582;28;19932;-62
2022/10/08 02:48:03;;;;;;;;;;;20.30;87.50;;;;;;5115482;28;19924;-62
2022/10/08 02:50:28;;;;;;;;;;;20.10;86.90;;;;;;5095162;28;20039;-62
2022/10/08 02:52:54;;;;;;;;;;;20.30;87.00;;;;;;5094483;28;19948;-61
2022/10/08 02:55:35;;;;;;;;;;;20.20;87.00;;;;;;5102139;28;20450;-61
2022/10/08 02:58:05;;;;;;;;;;;20.30;87.10;;;;;;5095635;28;19930;-62
2022/10/08 03:00:34;;;;;;;;;;;20.30;87.10;;;;;;5095715;28;19928;-61
2022/10/08 03:03:08;;;;;;;;;;;20.10;87.00;;;;;;5092027;28;19968;-62
2022/10/08 03:05:35;;;;;;;;;;;20.20;87.10;;;;;;5112843;28;19930;-61
2022/10/08 03:08:03;;;;;;;;;;;20.10;87.60;;;;;;5115181;28;20018;-61
2022/10/08 03:10:29;;;;;;;;;;;19.90;87.00;;;;;;5093452;28;19924;-62
2022/10/08 03:13:01;;;;;;;;;;;20.00;87.10;;;;;;5113117;28;19931;-62
2022/10/08 03:15:26;;;;;;;;;;;20.00;87.10;;;;;;5084267;28;19924;-62
2022/10/08 03:17:52;;;;;;;;;;;20.30;87.30;;;;;;5092465;28;20391;-61
2022/10/08 03:20:18;;;;;;;;;;;20.40;87.40;;;;;;5091295;28;19924;-61
2022/10/08 03:22:43;;;;;;;;;;;20.20;87.30;;;;;;5114269;28;19947;-62
2022/10/08 03:25:09;;;;;;;;;;;20.20;87.30;;;;;;5111339;28;20290;-62
2022/10/08 03:27:34;;;;;;;;;;;20.10;87.30;;;;;;5105424;28;19924;-61
2022/10/08 03:30:01;;;;;;;;;;;19.90;87.20;;;;;;5108449;28;19976;-61
2022/10/08 03:32:26;;;;;;;;;;;20.30;87.40;;;;;;5113008;28;20386;-62
2022/10/08 03:34:52;;;;;;;;;;;19.90;87.20;;;;;;5111381;28;19924;-61
2022/10/08 03:37:18;;;;;;;;;;;20.30;87.60;;;;;;5114525;28;19928;-61
2022/10/08 03:39:43;;;;;;;;;;;19.90;87.20;;;;;;5098908;28;19928;-62
2022/10/08 03:42:09;;;;;;;;;;;20.20;87.50;;;;;;5114609;28;19923;-61
2022/10/08 03:44:35;;;;;;;;;;;20.10;87.40;;;;;;5112060;28;20024;-62
2022/10/08 03:47:00;;;;;;;;;;;20.00;87.30;;;;;;5112636;28;20456;-62
2022/10/08 03:49:26;;;;;;;;;;;19.90;87.40;;;;;;5104726;28;19977;-61
2022/10/08 03:51:52;;;;;;;;;;;20.00;87.40;;;;;;5072164;28;20112;-62
2022/10/08 03:54:18;;;;;;;;;;;20.00;87.40;;;;;;5083291;28;19932;-69
2022/10/08 03:56:43;;;;;;;;;;;20.20;87.60;;;;;;5110969;28;19931;-69
2022/10/08 03:59:09;;;;;;;;;;;20.00;87.40;;;;;;5113209;28;19946;-69
2022/10/08 04:01:35;;;;;;;;;;;20.20;87.50;;;;;;5113420;28;20022;-61
2022/10/08 04:04:00;;;;;;;;;;;20.20;87.60;;;;;;5110523;28;20333;-67
2022/10/08 04:06:26;;;;;;;;;;;19.90;87.40;;;;;;5110322;28;19923;-68
2022/10/08 04:08:52;;;;;;;;;;;20.00;87.50;;;;;;5112894;28;19924;-69
2022/10/08 04:11:18;;;;;;;;;;;20.00;87.50;;;;;;5112665;28;19942;-69
2022/10/08 04:13:44;;;;;;;;;;;20.00;87.50;;;;;;5114694;28;19924;-69
2022/10/08 04:16:10;;;;;;;;;;;20.00;87.60;;;;;;5115963;28;20002;-69
2022/10/08 04:18:36;;;;;;;;;;;19.80;87.50;;;;;;5087904;28;20301;-69
2022/10/08 04:21:03;;;;;;;;;;;20.00;87.60;;;;;;5111851;28;19924;-69
2022/10/08 04:23:29;;;;;;;;;;;20.00;87.70;;;;;;5117933;28;20376;-69
2022/10/08 04:25:55;;;;;;;;;;;20.00;87.70;;;;;;5115071;28;19985;-69
2022/10/08 04:28:21;;;;;;;;;;;19.90;87.60;;;;;;5116480;27;20445;-69
2022/10/08 04:30:54;;;;;;;;;;;20.00;87.70;;;;;;5099271;28;19935;-69
2022/10/08 04:33:19;;;;;;;;;;;20.00;87.70;;;;;;5098992;28;20315;-69
2022/10/08 04:35:45;;;;;;;;;;;20.00;87.70;;;;;;5116075;28;19968;-69
2022/10/08 04:38:11;;;;;;;;;;;19.90;87.70;;;;;;5105382;28;19930;-69
2022/10/08 04:40:36;;;;;;;;;;;20.10;87.80;;;;;;5116592;28;19984;-68
2022/10/08 04:43:02;;;;;;;;;;;20.00;87.70;;;;;;5116252;28;20019;-62
2022/10/08 04:45:28;;;;;;;;;;;20.00;87.70;;;;;;5115395;28;20011;-61
2022/10/08 04:47:53;;;;;;;;;;;19.90;87.80;;;;;;5084668;28;19931;-62
2022/10/08 04:50:19;;;;;;;;;;;19.90;87.80;;;;;;5115578;28;19969;-62
2022/10/08 04:52:44;;;;;;;;;;;20.00;87.80;;;;;;5087394;28;19985;-62
2022/10/08 04:55:10;;;;;;;;;;;19.90;87.80;;;;;;5112578;28;20285;-61
2022/10/08 04:57:36;;;;;;;;;;;;;;;;;;5117277;28;19930;-63
2022/10/08 05:00:03;;;;;;;;;;;20.00;87.90;;;;;;5113182;27;20301;-61
2022/10/08 05:02:29;;;;;;;;;;;19.90;87.80;;;;;;5111210;28;19928;-61
2022/10/08 05:04:54;;;;;;;;;;;19.90;87.80;;;;;;5110003;28;20349;-61
2022/10/08 05:07:20;;;;;;;;;;;20.00;87.90;;;;;;5113811;28;19932;-62
2022/10/08 05:09:45;;;;;;;;;;;20.00;87.90;;;;;;5114766;28;20028;-63
2022/10/08 05:12:11;;;;;;;;;;;19.70;87.80;;;;;;5115053;28;19993;-62
2022/10/08 05:14:37;;;;;;;;;;;19.80;87.90;;;;;;5087149;28;19962;-61
2022/10/08 05:17:02;;;;;;;;;;;20.00;88.00;;;;;;5078567;28;20382;-69
2022/10/08 05:19:28;;;;;;;;;;;19.70;87.90;;;;;;5087174;28;20277;-69
2022/10/08 05:21:53;;;;;;;;;;;19.80;87.90;;;;;;5083260;28;20007;-69
2022/10/08 05:24:19;;;;;;;;;;;19.90;88.00;;;;;;5090965;28;19924;-62
2022/10/08 05:26:45;;;;;;;;;;;19.90;88.00;;;;;;5092103;28;19924;-61
2022/10/08 05:29:10;;;;;;;;;;;19.80;88.00;;;;;;5092454;28;19969;-62
2022/10/08 05:31:36;;;;;;;;;;;19.70;87.70;;;;;;5084594;28;19936;-69
2022/10/08 05:34:01;;;;;;;;;;;19.80;87.80;;;;;;5082915;28;19924;-69
2022/10/08 05:36:29;;;;;;;;;;;19.90;87.90;;;;;;5077200;28;19981;-68
2022/10/08 05:38:55;;;;;;;;;;;19.70;87.90;;;;;;5085140;28;19925;-64
2022/10/08 05:41:21;;;;;;;;;;;;;;;;;;5076192;28;20274;-64
2022/10/08 05:43:47;;;;;;;;;;;19.50;87.90;;;;;;5078098;28;19936;-63
2022/10/08 05:46:13;;;;;;;;;;;19.90;88.20;;;;;;5081230;28;19924;-69
2022/10/08 05:48:39;;;;;;;;;;;19.90;88.20;;;;;;5085280;28;19921;-65
2022/10/08 05:51:08;;;;;;;;;;;19.80;88.10;;;;;;5094701;28;20776;-62
2022/10/08 05:53:35;;;;;;;;;;;19.80;88.00;;;;;;5083425;28;20076;-63
2022/10/08 05:56:01;;;;;;;;;;;20.00;88.20;;;;;;5085417;28;19924;-65
2022/10/08 05:58:26;;;;;;;;;;;19.90;88.10;;;;;;5074378;28;19924;-67
2022/10/08 06:00:58;;;;;;;;;;;20.00;88.20;;;;;;5094637;28;20350;-64
2022/10/08 06:03:24;;;;;;;;;;;19.80;88.10;;;;;;5087101;28;19975;-65
2022/10/08 06:05:50;;;;;;;;;;;19.90;88.20;;;;;;5085501;28;19968;-68
2022/10/08 06:08:16;;;;;;;;;;;20.20;88.30;;;;;;5089608;28;19928;-63
2022/10/08 06:10:49;;;;;;;;;;;20.00;88.10;;;;;;5074711;28;19924;-67
2022/10/08 06:13:15;;;;;;;;;;;19.80;88.10;;;;;;5095396;28;20331;-63
2022/10/08 06:15:40;;;;;;;;;;;20.00;88.20;;;;;;5113614;28;20292;-63
2022/10/08 06:18:06;;;;;;;;;;;19.70;88.10;;;;;;5114915;28;19931;-68
2022/10/08 06:20:35;;;;;;;;;;;20.00;88.20;;;;;;5096061;28;20006;-63
2022/10/08 06:23:00;;;;;;;;;;;20.00;88.20;;;;;;5115498;28;20003;-62
2022/10/08 06:25:26;;;;;;;;;;;20.20;88.40;;;;;;5113694;28;19967;-64
2022/10/08 06:27:52;;;;;;;;;;;20.10;88.20;;;;;;5098376;28;19931;-64
2022/10/08 06:30:18;;;;;;;;;;;;;;;;;;5103080;28;19924;-63
2022/10/08 06:32:44;;;;;;;;;;;20.20;87.90;;;;;;5095196;28;19931;-62
2022/10/08 06:35:10;;;;;;;;;;;20.30;87.80;;;;;;5114458;28;19970;-64
2022/10/08 06:37:36;;;;;;;;;;;20.60;87.80;;;;;;5108641;27;19963;-62
2022/10/08 06:40:02;;;;;;;;;;;20.40;87.60;;;;;;5112657;28;19924;-62
2022/10/08 06:42:27;;;;;;;;;;;;;;;;;;5109680;27;20645;-65
2022/10/08 06:44:53;;;;;;;;;;;20.80;87.10;;;;;;5100177;28;20484;-69
2022/10/08 06:47:19;;;;;;;;;;;20.70;87.20;;;;;;5106477;28;19924;-70
2022/10/08 06:49:45;;;;;;;;;;;20.80;87.00;;;;;;5108913;28;19923;-69
2022/10/08 06:52:11;;;;;;;;;;;20.80;86.80;;;;;;5094764;28;19936;-65
2022/10/08 06:54:40;;;;;;;;;;;20.80;86.60;;;;;;5107755;28;19935;-64
2022/10/08 06:57:05;;;;;;;;;;;21.50;86.10;;;;;;5095612;28;19924;-68
2022/10/08 06:59:31;;;;;;;;;;;21.00;86.40;;;;;;5098385;28;19931;-62
2022/10/08 07:01:56;;;;;;;;;;;21.30;86.50;;;;;;5102216;28;19927;-68
2022/10/08 07:04:22;;;;;;;;;;;21.20;86.30;;;;;;5101885;27;19928;-69
2022/10/08 07:06:48;;;;;;;;;;;21.20;85.70;;;;;;5112494;27;19924;-69
2022/10/08 07:09:14;;;;;;;;;;;21.40;86.10;;;;;;5114610;28;19924;-61
2022/10/08 07:11:39;;;;;;;;;;;21.60;86.00;;;;;;5111756;28;19924;-70
2022/10/08 07:14:05;;;;;;;;;;;21.40;85.70;;;;;;5100503;28;20290;-61
2022/10/08 07:16:31;;;;;;;;;;;21.60;85.70;;;;;;5115038;28;19928;-67
2022/10/08 07:18:59;;;;;;;;;;;21.50;85.70;;;;;;5096999;27;19930;-68
2022/10/08 07:21:25;;;;;;;;;;;21.80;85.20;;;;;;5078790;28;19924;-68
2022/10/08 07:23:51;;;;;;;;;;;21.80;85.20;;;;;;5095271;28;19934;-63
2022/10/08 07:26:18;;;;;;;;;;;21.50;85.00;;;;;;5107543;28;20015;-63
2022/10/08 07:28:48;;;;;;;;;;;21.70;85.60;;;;;;5110361;28;19932;-64
2022/10/08 07:31:14;;;;;;;;;;;21.70;84.10;;;;;;5111798;28;19939;-64
2022/10/08 07:33:40;;;;;;;;;;;22.00;85.40;;;;;;5107088;28;19977;-65
2022/10/08 07:36:09;;;;;;;;;;;21.70;84.70;;;;;;5111977;28;19924;-67
2022/10/08 07:38:35;;;;;;;;;;;22.10;85.20;;;;;;5112451;28;19969;-70
2022/10/08 07:41:01;;;;;;;;;;;22.30;84.90;;;;;;5113377;28;20324;-61
2022/10/08 07:43:26;;;;;;;;;;;21.80;84.70;;;;;;5112945;28;19950;-67
2022/10/08 07:45:52;;;;;;;;;;;22.10;84.70;;;;;;5110632;28;19923;-63
2022/10/08 07:48:18;;;;;;;;;;;22.10;85.00;;;;;;5114519;28;19976;-62
2022/10/08 07:50:44;;;;;;;;;;;21.80;84.60;;;;;;5114262;28;20408;-62
2022/10/08 07:53:10;;;;;;;;;;;21.80;84.40;;;;;;5114356;28;19923;-62
2022/10/08 07:55:36;;;;;;;;;;;21.90;84.30;;;;;;5105184;28;19931;-61
2022/10/08 07:58:01;;;;;;;;;;;21.70;84.90;;;;;;5093742;28;19947;-61
2022/10/08 08:00:27;;;;;;;;;;;21.90;84.80;;;;;;5096064;28;19942;-61
2022/10/08 08:02:53;;;;;;;;;;;21.60;84.40;;;;;;5113894;28;19931;-62
2022/10/08 08:05:18;;;;;;;;;;;22.00;85.00;;;;;;5113213;28;19939;-62
2022/10/08 08:07:44;;;;;;;;;;;21.60;84.60;;;;;;5104928;28;20288;-62
2022/10/08 08:10:10;;;;;;;;;;;22.10;84.60;;;;;;5094342;28;20054;-61
2022/10/08 08:12:35;;;;;;;;;;;21.70;83.90;;;;;;5113760;28;19924;-62
2022/10/08 08:15:01;;;;;;;;;;;22.00;84.00;;;;;;5113501;28;19970;-62
2022/10/08 08:17:26;;;;;;;;;;;22.00;83.80;;;;;;5111885;28;19979;-62
2022/10/08 08:19:52;;;;;;;;;;;21.80;83.80;;;;;;5114200;28;19923;-61
2022/10/08 08:22:18;;;;;;;;;;;21.70;83.70;;;;;;5113933;28;20014;-71
2022/10/08 08:24:43;;;;;;;;;;;21.70;83.40;;;;;;5111769;28;19924;-64
2022/10/08 08:27:09;;;;;;;;;;;21.90;83.80;;;;;;5093458;28;20374;-70
2022/10/08 08:29:34;;;;;;;;;;;22.00;83.40;;;;;;5095692;28;19923;-61
2022/10/08 08:32:00;;;;;;;;;;;22.10;83.50;;;;;;5112150;28;20461;-62
2022/10/08 08:34:26;;;;;;;;;;;22.20;83.50;;;;;;5111870;28;19927;-65
2022/10/08 08:36:54;;;;;;;;;;;21.90;83.50;;;;;;5113711;28;19928;-62
2022/10/08 08:39:21;;;;;;;;;;;22.10;83.50;;;;;;5112594;28;20007;-64
2022/10/08 08:41:59;;;;;;;;;;;22.00;83.90;;;;;;5095178;28;19928;-62
2022/10/08 08:44:29;;;;;;;;;;;21.90;82.50;;;;;;5096003;28;19924;-62
2022/10/08 08:47:01;;;;;;;;;;;21.80;83.80;;;;;;5095871;28;19977;-62
2022/10/08 08:49:36;;;;;;;;;;;21.80;82.30;;;;;;5111849;28;19935;-61
2022/10/08 08:52:02;;;;;;;;;;;22.00;82.30;;;;;;5095399;28;19947;-62
2022/10/08 08:54:28;;;;;;;;;;;22.00;83.80;;;;;;5095485;28;20401;-62
2022/10/08 08:56:53;;;;;;;;;;;22.10;83.60;;;;;;5113986;28;19924;-62
2022/10/08 08:59:23;;;;;;;;;;;21.80;83.50;;;;;;5115469;28;19923;-62
2022/10/08 09:01:49;;;;;;;;;;;22.10;82.60;;;;;;5098524;28;19931;-61
2022/10/08 09:04:33;;;;;;;;;;;22.20;83.60;;;;;;5108075;28;19928;-62
2022/10/08 09:07:00;;;;;;;;;;;22.10;82.50;;;;;;5096482;28;19932;-64
2022/10/08 09:09:28;;;;;;;;;;;21.90;83.50;;;;;;5091636;28;19984;-67
2022/10/08 09:11:54;;;;;;;;;;;22.10;83.70;;;;;;5090699;28;19969;-62
2022/10/08 09:14:36;;;;;;;;;;;22.40;83.60;;;;;;5088858;28;20014;-61
2022/10/08 09:17:17;;;;;;;;;;;22.30;82.10;;;;;;5100331;27;19932;-62
2022/10/08 09:19:43;;;;;;;;;;;22.10;82.00;;;;;;5096782;28;19985;-61
2022/10/08 09:22:18;;;;;;;;;;;22.20;83.10;;;;;;5103385;28;19924;-64
2022/10/08 09:24:44;;;;;;;;;;;22.20;82.10;;;;;;5089426;28;19925;-61
2022/10/08 09:27:12;;;;;;;;;;;22.30;83.70;;;;;;5112917;28;19931;-62
2022/10/08 09:29:37;;;;;;;;;;;22.10;83.60;;;;;;5112206;28;19931;-61
2022/10/08 09:32:03;;;;;;;;;;;22.10;83.40;;;;;;5112747;28;19928;-62
2022/10/08 09:34:29;;;;;;;;;;;22.10;83.40;;;;;;5101973;28;19969;-61
2022/10/08 09:37:04;;;;;;;;;;;22.10;83.30;;;;;;5096805;28;19931;-62
2022/10/08 09:39:33;;;;;;;;;;;22.20;82.50;;;;;;5116432;28;20385;-66
2022/10/08 09:42:05;;;;;;;;;;;22.20;82.60;;;;;;5089022;28;19931;-65
2022/10/08 09:44:41;;;;;;;;;;;22.00;82.60;;;;;;5116376;28;19923;-62
2022/10/08 09:47:08;;;;;;;;;;;22.00;82.60;;;;;;5079640;28;19946;-61
2022/10/08 09:49:34;;;;;;;;;;;21.90;84.00;;;;;;5079961;28;19931;-61
2022/10/08 09:52:24;;;;;;;;;;;22.10;84.00;;;;;;5101417;27;19923;-62
2022/10/08 09:55:00;;;;;;;;;;;22.30;82.80;;;;;;5053374;28;19925;-63
2022/10/08 09:57:26;;;;;;;;;;;22.10;82.80;;;;;;5046479;28;19957;-61
2022/10/08 09:59:52;;;;;;;;;;;22.10;83.80;;;;;;5006024;28;20014;-61
2022/10/08 10:02:25;;;;;;;;;;;22.00;84.30;;;;;;5051789;28;19925;-61
2022/10/08 10:04:51;;;;;;;;;;;22.20;82.90;;;;;;5052308;28;20007;-62
2022/10/08 10:07:17;;;;;;;;;;;21.90;84.10;;;;;;5046734;28;19928;-62
2022/10/08 10:09:43;;;;;;;;;;;22.00;83.80;;;;;;5051809;28;20287;-62
2022/10/08 10:12:25;;;;;;;;;;;22.10;84.40;;;;;;5053120;28;19924;-62
2022/10/08 10:14:55;;;;;;;;;;;22.20;83.00;;;;;;5043594;28;19925;-63
2022/10/08 10:17:20;;;;;;;;;;;22.10;82.90;;;;;;5033149;28;19925;-71
2022/10/08 10:19:48;;;;;;;;;;;22.00;83.90;;;;;;5052296;28;19924;-71
2022/10/08 10:22:16;;;;;;;;;;;22.00;83.70;;;;;;5047913;28;20008;-61
2022/10/08 10:24:44;;;;;;;;;;;22.20;84.40;;;;;;5046316;28;19984;-61
2022/10/08 10:27:12;;;;;;;;;;;22.00;84.10;;;;;;5047732;28;19929;-61
2022/10/08 10:29:43;;;;;;;;;;;22.20;84.20;;;;;;5050918;28;20015;-61
2022/10/08 10:32:14;;;;;;;;;;;22.30;82.90;;;;;;5090259;28;19924;-66
2022/10/08 10:34:39;;;;;;;;;;;22.20;83.00;;;;;;5104699;28;19924;-62
2022/10/08 10:37:07;;;;;;;;;;;22.20;84.00;;;;;;5096045;28;19924;-68
2022/10/08 10:39:52;;;;;;;;;;;22.20;84.40;;;;;;5090894;28;19924;-67
2022/10/08 10:42:19;;;;;;;;;;;22.10;82.90;;;;;;5076943;28;19931;-67
2022/10/08 10:44:52;;;;;;;;;;;22.10;84.20;;;;;;5100533;28;19964;-67
2022/10/08 10:47:21;;;;;;;;;;;22.30;83.10;;;;;;5114130;27;19927;-66
2022/10/08 10:49:47;;;;;;;;;;;22.20;83.10;;;;;;5093934;28;19934;-66
2022/10/08 10:52:16;;;;;;;;;;;22.50;84.20;;;;;;5113612;28;19919;-66
2022/10/08 10:55:00;;;;;;;;;;;22.30;83.10;;;;;;5096147;28;19923;-67
2022/10/08 10:57:55;;;;;;;;;;;22.50;83.40;;;;;;5114621;28;19924;-64
2022/10/08 11:00:22;;;;;;;;;;;22.40;83.30;;;;;;5067423;28;20397;-67
2022/10/08 11:02:58;;;;;;;;;;;22.40;84.60;;;;;;5059895;28;20011;-61
2022/10/08 11:05:28;;;;;;;;;;;22.80;83.40;;;;;;5035466;28;19978;-67
2022/10/08 11:08:05;;;;;;;;;;;22.50;83.10;;;;;;5059210;28;20037;-67
2022/10/08 11:10:39;;;;;;;;;;;22.50;83.10;;;;;;5066919;28;19924;-62
2022/10/08 11:13:05;;;;;;;;;;;22.80;83.30;;;;;;5055240;28;19990;-62
2022/10/08 11:15:43;;;;;;;;;;;22.60;84.10;;;;;;5061735;28;19964;-61
2022/10/08 11:18:08;;;;;;;;;;;22.80;83.10;;;;;;5051855;28;20486;-66
2022/10/08 11:20:48;;;;;;;;;;;22.80;83.80;;;;;;5056013;28;19925;-61
2022/10/08 11:23:29;;;;;;;;;;;22.80;82.70;;;;;;5055174;28;19928;-67
2022/10/08 11:25:57;;;;;;;;;;;23.20;82.70;;;;;;5063113;28;19925;-63
2022/10/08 11:28:43;;;;;;;;;;;23.20;83.80;;;;;;5050835;28;19925;-61
2022/10/08 11:31:08;;;;;;;;;;;23.20;83.70;;;;;;5054611;28;20369;-62
2022/10/08 11:33:35;;;;;;;;;;;23.30;83.00;;;;;;5071877;28;19931;-61
2022/10/08 11:36:10;;;;;;;;;;;23.20;82.60;;;;;;5060289;28;19934;-67
2022/10/08 11:38:35;;;;;;;;;;;23.20;81.80;;;;;;5093836;28;20388;-64
2022/10/08 11:41:01;;;;;;;;;;;23.20;82.90;;;;;;5094021;28;19927;-62
2022/10/08 11:43:29;;;;;;;;;;;23.40;83.00;;;;;;5109321;28;19935;-66
2022/10/08 11:46:13;;;;;;;;;;;23.20;83.20;;;;;;5114951;28;19924;-66
2022/10/08 11:48:39;;;;;;;;;;;23.10;81.90;;;;;;5097681;28;19977;-66
2022/10/08 11:51:20;;;;;;;;;;;23.10;83.00;;;;;;5075564;28;19928;-61
2022/10/08 11:54:04;;;;;;;;;;;23.00;82.10;;;;;;5101995;28;19924;-67
2022/10/08 11:56:30;;;;;;;;;;;23.30;82.40;;;;;;5093793;28;20396;-66
2022/10/08 11:58:56;;;;;;;;;;;22.90;83.20;;;;;;5095294;28;19928;-68
2022/10/08 12:01:22;;;;;;;;;;;23.40;83.20;;;;;;5094822;28;20301;-62
2022/10/08 12:04:16;;;;;;;;;;;23.30;82.40;;;;;;5101742;28;19923;-61
2022/10/08 12:06:41;;;;;;;;;;;23.30;81.40;;;;;;5089162;28;19947;-65
2022/10/08 12:09:07;;;;;;;;;;;23.40;82.60;;;;;;5075437;28;19924;-65
2022/10/08 12:11:39;;;;;;;;;;;23.40;82.70;;;;;;5093002;28;19920;-67
2022/10/08 12:14:11;;;;;;;;;;;23.40;81.50;;;;;;5108761;28;19931;-67
2022/10/08 12:16:55;;;;;;;;;;;23.40;80.90;;;;;;5105588;28;19939;-64
2022/10/08 12:19:33;;;;;;;;;;;23.80;80.90;;;;;;5112492;28;20014;-64
2022/10/08 12:22:14;;;;;;;;;;;24.00;80.60;;;;;;5113901;28;19930;-61
2022/10/08 12:24:40;;;;;;;;;;;23.80;80.30;;;;;;5091374;28;19985;-63
2022/10/08 12:27:25;;;;;;;;;;;23.70;80.90;;;;;;5095771;28;20389;-62
2022/10/08 12:29:54;;;;;;;;;;;24.00;80.40;;;;;;5093039;28;19970;-62
2022/10/08 12:32:20;;;;;;;;;;;23.90;80.30;;;;;;5115547;28;19930;-61
2022/10/08 12:34:46;;;;;;;;;;;24.10;81.60;;;;;;5113900;28;20331;-61
2022/10/08 12:37:37;;;;;;;;;;;24.20;81.20;;;;;;5095502;28;19930;-62
2022/10/08 12:40:20;;;;;;;;;;;23.90;79.80;;;;;;5074525;28;20297;-61
2022/10/08 12:42:46;;;;;;;;;;;24.00;79.50;;;;;;5074737;28;19975;-61
2022/10/08 12:45:38;;;;;;;;;;;23.90;80.50;;;;;;5056927;28;19978;-64
2022/10/08 12:48:08;;;;;;;;;;;24.00;79.10;;;;;;5069984;28;20025;-61
2022/10/08 12:50:52;;;;;;;;;;;23.90;79.10;;;;;;5056782;28;19925;-65
2022/10/08 12:53:18;;;;;;;;;;;23.80;77.10;;;;;;5054352;28;19924;-62
2022/10/08 12:55:47;;;;;;;;;;;23.90;77.60;;;;;;5074714;28;19931;-64
2022/10/08 12:58:17;;;;;;;;;;;23.70;77.90;;;;;;5071298;28;19963;-60
2022/10/08 13:00:42;;;;;;;;;;;23.90;76.40;;;;;;5060088;28;20343;-68
2022/10/08 13:03:12;;;;;;;;;;;23.90;77.30;;;;;;5066703;28;19971;-66
2022/10/08 13:05:38;;;;;;;;;;;23.70;76.10;;;;;;5040641;28;19925;-67
2022/10/08 13:08:16;;;;;;;;;;;23.50;77.20;;;;;;5061929;28;19932;-61
2022/10/08 13:10:42;;;;;;;;;;;23.30;75.80;;;;;;5054046;28;20027;-71
2022/10/08 13:13:26;;;;;;;;;;;23.20;77.10;;;;;;5037108;28;19984;-68
2022/10/08 13:15:58;;;;;;;;;;;23.20;76.20;;;;;;5058348;28;19925;-63
2022/10/08 13:18:24;;;;;;;;;;;23.00;76.60;;;;;;5107105;27;20022;-61
2022/10/08 13:20:59;;;;;;;;;;;22.70;77.30;;;;;;5116806;28;19974;-61
2022/10/08 13:23:30;;;;;;;;;;;22.90;76.90;;;;;;5112450;28;19924;-61
2022/10/08 13:25:58;;;;;;;;;;;22.90;78.50;;;;;;5081643;28;19924;-72
2022/10/08 13:28:23;;;;;;;;;;;22.70;78.40;;;;;;5095844;28;20010;-62
2022/10/08 13:30:49;;;;;;;;;;;22.60;78.20;;;;;;5095965;28;19971;-66
2022/10/08 13:33:15;;;;;;;;;;;22.30;78.30;;;;;;5113212;27;20052;-62
2022/10/08 13:35:41;;;;;;;;;;;22.40;78.30;;;;;;5114978;28;19969;-69
2022/10/08 13:38:07;;;;;;;;;;;22.30;77.80;;;;;;5113257;28;19923;-68
2022/10/08 13:40:33;;;;;;;;;;;22.30;77.90;;;;;;5099015;28;19939;-61
2022/10/08 13:42:58;;;;;;;;;;;22.40;78.00;;;;;;5115951;28;19997;-63
2022/10/08 13:45:28;;;;;;;;;;;22.40;78.30;;;;;;5107783;28;19923;-70
2022/10/08 13:47:54;;;;;;;;;;;22.00;77.30;;;;;;5078548;28;19924;-62
2022/10/08 13:50:20;;;;;;;;;;;22.00;78.30;;;;;;5106260;28;20365;-69
2022/10/08 13:52:55;;;;;;;;;;;21.90;78.50;;;;;;5111523;28;19924;-69
2022/10/08 13:55:27;;;;;;;;;;;22.10;77.60;;;;;;5114123;28;20010;-65
2022/10/08 13:57:53;;;;;;;;;;;22.10;77.50;;;;;;5114932;28;20338;-69
2022/10/08 14:00:19;;;;;;;;;;;21.80;78.60;;;;;;5113664;28;19966;-70
2022/10/08 14:02:44;;;;;;;;;;;21.80;78.60;;;;;;5113280;28;19975;-61
2022/10/08 14:05:10;;;;;;;;;;;21.60;78.00;;;;;;5116355;28;20301;-62
2022/10/08 14:07:36;;;;;;;;;;;21.60;78.60;;;;;;5113128;28;20350;-62
2022/10/08 14:10:01;;;;;;;;;;;21.40;78.30;;;;;;5105282;28;19934;-68
2022/10/08 14:12:30;;;;;;;;;;;21.60;78.50;;;;;;5115313;28;19920;-62
2022/10/08 14:14:56;;;;;;;;;;;21.40;79.00;;;;;;5110975;28;19943;-64
2022/10/08 14:17:22;;;;;;;;;;;21.50;78.60;;;;;;5106176;28;19931;-68
2022/10/08 14:19:48;;;;;;;;;;;21.40;78.50;;;;;;5094985;28;20397;-61
2022/10/08 14:22:13;;;;;;;;;;;21.20;78.70;;;;;;5113346;27;19924;-64
2022/10/08 14:24:39;;;;;;;;;;;21.20;79.00;;;;;;5097799;28;19976;-62
2022/10/08 14:27:04;;;;;;;;;;;21.20;78.80;;;;;;5112970;28;19930;-71